Time;durP1;ratioP1;P1;durP2;ratioP2;P2;SDS_P1;SDS_P2;PMS_P1;PMS_P2;Temp;Humidity;BMP_temperature;BMP_pressure;BME280_temperature;BME280_humidity;BME280_pressure;Samples;Min_cycle;Max_cycle;Signal;HPM_P1;HPM_P2
2022/08/31 00:05:58;;;;;;;12.80;7.97;;;28.50;99.90;;;;;;4174152;28;20154;-66
2022/08/31 00:08:03;;;;;;;14.45;9.05;;;28.60;99.90;;;;;;4174775;28;20044;-66
2022/08/31 00:10:13;;;;;;;12.63;9.32;;;28.60;99.90;;;;;;4158872;28;20762;-66
2022/08/31 00:12:20;;;;;;;12.10;8.10;;;28.70;99.90;;;;;;4157589;28;20045;-66
2022/08/31 00:14:27;;;;;;;12.35;9.35;;;28.80;99.90;;;;;;4158072;28;20049;-66
2022/08/31 00:16:33;;;;;;;12.13;9.57;;;29.00;99.90;;;;;;4156570;28;20054;-66
2022/08/31 00:18:40;;;;;;;14.65;8.70;;;29.00;99.90;;;;;;4172683;28;20422;-66
2022/08/31 00:20:49;;;;;;;14.27;8.90;;;29.10;99.90;;;;;;4157827;28;20049;-66
2022/08/31 00:22:54;;;;;;;16.98;8.30;;;29.20;99.90;;;;;;4157942;28;20165;-66
2022/08/31 00:25:02;;;;;;;12.20;7.90;;;29.20;99.90;;;;;;4156235;28;20504;-66
2022/08/31 00:27:14;;;;;;;12.43;7.75;;;29.30;99.90;;;;;;4157566;28;20801;-67
2022/08/31 00:29:19;;;;;;;9.98;6.45;;;29.30;99.90;;;;;;4158044;28;20037;-67
2022/08/31 00:31:28;;;;;;;10.15;6.47;;;29.40;99.90;;;;;;4155764;28;20140;-66
2022/08/31 00:33:35;;;;;;;10.52;6.53;;;29.40;99.90;;;;;;4156459;28;20073;-66
2022/08/31 00:35:40;;;;;;;7.97;5.93;;;29.50;99.90;;;;;;4156086;28;20047;-67
2022/08/31 00:37:49;;;;;;;9.95;6.30;;;29.50;99.90;;;;;;4156656;28;20791;-66
2022/08/31 00:39:56;;;;;;;10.98;5.78;;;29.50;99.90;;;;;;4158086;28;20083;-67
2022/08/31 00:42:05;;;;;;;11.65;5.95;;;29.50;99.90;;;;;;4155527;28;20107;-67
2022/08/31 00:44:10;;;;;;;9.15;5.20;;;29.50;99.90;;;;;;4159727;28;20041;-66
2022/08/31 00:46:24;;;;;;;8.40;4.93;;;29.40;99.90;;;;;;4156091;28;20050;-65
2022/08/31 00:48:29;;;;;;;8.68;4.63;;;29.50;99.90;;;;;;4156602;28;20055;-66
2022/08/31 00:50:36;;;;;;;8.75;4.05;;;29.50;99.90;;;;;;4157667;28;20041;-67
2022/08/31 00:52:42;;;;;;;5.45;3.95;;;29.50;99.90;;;;;;4157972;28;20053;-66
2022/08/31 00:54:55;;;;;;;8.38;3.70;;;29.60;99.90;;;;;;4167789;28;20048;-66
2022/08/31 00:57:04;;;;;;;5.28;3.50;;;29.60;99.90;;;;;;4173991;28;20416;-66
2022/08/31 00:59:09;;;;;;;5.05;3.55;;;29.50;99.90;;;;;;4173520;28;20056;-66
2022/08/31 01:01:13;;;;;;;4.55;3.50;;;29.60;99.90;;;;;;4175082;28;20064;-66
2022/08/31 01:03:22;;;;;;;12.57;3.90;;;29.60;99.90;;;;;;4175731;28;20132;-66
2022/08/31 01:05:28;;;;;;;10.07;4.10;;;29.70;99.90;;;;;;4161856;28;20045;-66
2022/08/31 01:07:32;;;;;;;8.38;3.53;;;29.70;99.90;;;;;;4158467;28;20491;-66
2022/08/31 01:09:40;;;;;;;5.55;3.20;;;29.70;99.90;;;;;;4160316;28;20045;-66
2022/08/31 01:11:58;;;;;;;9.80;3.80;;;29.70;99.90;;;;;;4175175;28;20122;-66
2022/08/31 01:14:04;;;;;;;9.10;4.03;;;29.70;99.90;;;;;;4159717;28;20049;-66
2022/08/31 01:16:13;;;;;;;10.00;3.55;;;29.80;99.90;;;;;;4159622;28;20053;-66
2022/08/31 01:18:23;;;;;;;7.25;3.92;;;29.90;99.90;;;;;;4160418;28;20475;-66
2022/08/31 01:20:49;;;;;;;5.78;3.72;;;29.90;99.90;;;;;;4158795;28;20065;-67
2022/08/31 01:23:20;;;;;;;7.97;3.88;;;30.00;99.90;;;;;;4159456;28;20053;-66
2022/08/31 01:25:30;;;;;;;9.23;4.63;;;30.20;99.90;;;;;;4158653;28;20056;-66
2022/08/31 01:27:36;;;;;;;8.18;4.20;;;30.20;99.90;;;;;;4160279;28;20100;-66
2022/08/31 01:29:45;;;;;;;8.77;4.28;;;30.20;99.90;;;;;;4160173;28;20054;-66
2022/08/31 01:31:50;;;;;;;5.78;3.58;;;30.20;99.90;;;;;;4159769;28;20054;-66
2022/08/31 01:33:54;;;;;;;5.20;3.55;;;30.20;99.90;;;;;;4158414;28;20057;-65
2022/08/31 01:36:04;;;;;;;8.35;3.63;;;30.20;99.90;;;;;;4159527;28;20140;-66
2022/08/31 01:38:13;;;;;;;6.38;3.60;;;30.10;99.90;;;;;;4156618;28;20042;-66
2022/08/31 01:40:19;;;;;;;6.22;3.83;;;30.10;99.90;;;;;;4172451;28;20053;-66
2022/08/31 01:42:32;;;;;;;6.78;3.38;;;30.10;99.90;;;;;;4159933;28;20056;-66
2022/08/31 01:44:38;;;;;;;8.35;3.50;;;30.20;99.90;;;;;;4160796;28;20472;-66
2022/08/31 01:46:44;;;;;;;6.18;3.05;;;30.40;99.90;;;;;;4161378;28;20042;-68
2022/08/31 01:48:53;;;;;;;8.07;3.25;;;30.40;99.90;;;;;;4163037;28;20051;-66
2022/08/31 01:50:58;;;;;;;5.20;3.08;;;30.40;99.90;;;;;;4162937;28;20041;-66
2022/08/31 01:53:04;;;;;;;6.95;3.53;;;30.50;99.90;;;;;;4161428;28;20076;-63
2022/08/31 01:55:14;;;;;;;8.35;3.00;;;30.50;99.90;;;;;;4161475;28;20428;-66
2022/08/31 01:57:19;;;;;;;5.22;3.35;;;30.50;99.90;;;;;;4162884;28;20115;-66
2022/08/31 01:59:55;;;;;;;5.70;3.00;;;30.60;99.90;;;;;;4162665;28;20037;-66
2022/08/31 02:02:20;;;;;;;6.30;3.07;;;30.60;99.90;;;;;;4161821;28;20054;-66
2022/08/31 02:04:25;;;;;;;4.65;3.10;;;30.60;99.90;;;;;;4161262;28;20104;-66
2022/08/31 02:06:31;;;;;;;7.65;3.47;;;30.60;99.90;;;;;;4161367;28;20045;-66
2022/08/31 02:08:40;;;;;;;6.40;2.97;;;30.70;99.90;;;;;;4177695;28;20060;-66
2022/08/31 02:10:45;;;;;;;7.22;2.70;;;30.90;99.90;;;;;;4162439;28;20095;-66
2022/08/31 02:12:50;;;;;;;4.95;2.90;;;30.90;99.90;;;;;;4161357;28;20046;-66
2022/08/31 02:15:06;;;;;;;4.05;3.03;;;30.90;99.90;;;;;;4162619;28;20041;-66
2022/08/31 02:17:10;;;;;;;5.03;3.28;;;31.00;99.90;;;;;;4162842;28;20057;-65
2022/08/31 02:19:15;;;;;;;6.88;2.70;;;31.00;99.90;;;;;;4160388;28;20037;-65
2022/08/31 02:21:23;;;;;;;7.20;2.50;;;31.10;99.90;;;;;;4176017;28;20150;-67
2022/08/31 02:23:27;;;;;;;14.52;3.67;;;31.20;99.90;;;;;;4159289;28;20052;-66
2022/08/31 02:25:32;;;;;;;7.30;2.92;;;31.30;99.90;;;;;;4162253;28;20567;-66
2022/08/31 02:27:39;;;;;;;5.30;2.78;;;31.30;99.90;;;;;;4154537;28;20050;-66
2022/08/31 02:29:44;;;;;;;4.80;2.30;;;31.40;99.90;;;;;;4155665;28;20061;-66
2022/08/31 02:31:53;;;;;;;7.82;2.40;;;31.40;99.90;;;;;;4160210;28;20053;-65
2022/08/31 02:33:59;;;;;;;3.50;2.38;;;31.40;99.70;;;;;;4160830;28;20081;-66
2022/08/31 02:36:04;;;;;;;4.50;2.53;;;31.30;99.90;;;;;;4156331;28;20554;-66
2022/08/31 02:38:11;;;;;;;6.32;2.55;;;31.40;99.90;;;;;;4160675;28;20077;-66
2022/08/31 02:40:18;;;;;;;4.35;2.25;;;31.50;99.90;;;;;;4160789;28;20041;-66
2022/08/31 02:42:25;;;;;;;5.00;2.33;;;31.40;99.20;;;;;;4162388;28;20050;-66
2022/08/31 02:44:50;;;;;;;3.55;2.38;;;31.50;99.10;;;;;;4162236;28;20042;-66
2022/08/31 02:46:59;;;;;;;4.00;2.38;;;31.60;99.70;;;;;;4161556;28;20049;-65
2022/08/31 02:49:16;;;;;;;4.25;2.33;;;31.70;99.90;;;;;;4175648;28;20041;-66
2022/08/31 02:51:21;;;;;;;3.58;2.17;;;31.80;99.90;;;;;;4160906;28;20487;-66
2022/08/31 02:53:29;;;;;;;11.98;3.22;;;31.90;99.90;;;;;;4161940;28;20053;-66
2022/08/31 02:55:33;;;;;;;10.38;2.50;;;32.00;99.90;;;;;;4161406;28;20044;-65
2022/08/31 02:57:38;;;;;;;7.78;2.63;;;32.10;99.90;;;;;;4149863;28;20612;-65
2022/08/31 02:59:48;;;;;;;5.25;2.60;;;32.20;99.80;;;;;;4160468;28;20148;-66
2022/08/31 03:01:54;;;;;;;4.57;2.40;;;32.20;99.90;;;;;;4160225;28;20409;-67
2022/08/31 03:03:59;;;;;;;5.32;2.47;;;32.30;99.90;;;;;;4161126;28;20055;-66
2022/08/31 03:06:06;;;;;;;18.02;3.80;;;32.30;99.90;;;;;;4160048;28;20046;-65
2022/08/31 03:08:10;;;;;;;7.30;2.40;;;32.40;99.70;;;;;;4160138;28;20045;-65
2022/08/31 03:10:19;;;;;;;4.80;1.70;;;32.50;99.30;;;;;;4160293;28;20052;-65
2022/08/31 03:12:28;;;;;;;5.95;2.00;;;32.50;97.40;;;;;;4175928;28;20091;-65
2022/08/31 03:14:33;;;;;;;6.53;2.40;;;32.50;96.80;;;;;;4161929;28;20053;-66
2022/08/31 03:16:40;;;;;;;2.72;1.88;;;32.50;96.80;;;;;;4160007;28;20080;-65
2022/08/31 03:18:48;;;;;;;4.15;1.98;;;32.50;96.10;;;;;;4176844;28;20064;-66
2022/08/31 03:20:52;;;;;;;3.72;2.00;;;32.60;95.90;;;;;;4176196;28;20069;-65
2022/08/31 03:22:57;;;;;;;6.15;1.73;;;32.60;96.00;;;;;;4161461;28;20049;-67
2022/08/31 03:25:09;;;;;;;2.95;1.70;;;32.40;95.70;;;;;;4159840;28;20045;-66
2022/08/31 03:27:13;;;;;;;7.10;2.17;;;32.30;94.70;;;;;;4160084;28;20041;-66
2022/08/31 03:29:19;;;;;;;4.90;1.80;;;32.30;95.70;;;;;;4161301;28;20049;-66
2022/08/31 03:31:39;;;;;;;4.20;1.73;;;32.50;95.90;;;;;;4161075;28;20046;-66
2022/08/31 03:33:44;;;;;;;2.60;2.00;;;32.60;95.60;;;;;;4161404;28;20038;-66
2022/08/31 03:35:49;;;;;;;3.35;1.63;;;32.70;95.70;;;;;;4161040;28;20182;-67
2022/08/31 03:38:00;;;;;;;4.53;2.00;;;32.80;95.50;;;;;;4160049;28;20038;-65
2022/08/31 03:40:06;;;;;;;2.75;1.63;;;32.70;94.50;;;;;;4160836;28;20049;-66
2022/08/31 03:42:12;;;;;;;3.25;1.52;;;32.80;95.20;;;;;;4161009;28;20065;-66
2022/08/31 03:44:22;;;;;;;3.63;1.20;;;32.90;94.70;;;;;;4169977;28;20041;-65
2022/08/31 03:46:30;;;;;;;3.47;1.33;;;33.00;92.90;;;;;;4175890;28;20076;-66
2022/08/31 03:48:35;;;;;;;2.95;1.45;;;33.10;93.00;;;;;;4176238;28;20045;-65
2022/08/31 03:50:43;;;;;;;2.47;1.40;;;33.00;91.90;;;;;;4192557;28;20465;-66
2022/08/31 03:52:57;;;;;;;3.22;1.40;;;33.00;92.40;;;;;;4176323;28;20053;-63
2022/08/31 03:55:02;;;;;;;4.00;1.92;;;33.10;92.80;;;;;;4175981;28;20044;-65
2022/08/31 03:57:11;;;;;;;5.72;1.60;;;33.20;92.80;;;;;;4176233;28;20148;-66
2022/08/31 03:59:15;;;;;;;5.05;1.65;;;33.20;92.00;;;;;;4175592;28;20053;-65
2022/08/31 04:01:34;;;;;;;3.55;1.67;;;33.20;92.20;;;;;;4160305;28;20128;-65
2022/08/31 04:03:51;;;;;;;3.60;1.20;;;33.20;92.70;;;;;;4160868;28;20522;-65
2022/08/31 04:06:11;;;;;;;3.50;1.58;;;33.30;92.50;;;;;;4160761;28;20132;-65
2022/08/31 04:08:36;;;;;;;3.88;1.50;;;33.20;92.90;;;;;;4160722;28;20049;-65
2022/08/31 04:10:55;;;;;;;2.50;1.40;;;33.10;92.90;;;;;;4160530;28;20052;-65
2022/08/31 04:13:19;;;;;;;3.78;1.55;;;33.10;93.00;;;;;;4160595;28;20087;-65
2022/08/31 04:15:40;;;;;;;3.47;1.75;;;33.20;93.10;;;;;;4160438;28;20053;-65
2022/08/31 04:18:02;;;;;;;4.13;1.70;;;33.30;92.80;;;;;;4173719;28;20079;-65
2022/08/31 04:20:20;;;;;;;3.30;1.40;;;33.50;92.40;;;;;;4126755;28;20054;-65
2022/08/31 04:22:42;;;;;;;3.35;2.10;;;33.50;92.80;;;;;;4173072;28;20405;-65
2022/08/31 04:25:10;;;;;;;3.38;1.60;;;33.40;92.70;;;;;;4159015;28;20053;-65
2022/08/31 04:27:20;;;;;;;6.15;1.60;;;33.50;92.50;;;;;;4160514;28;20055;-65
2022/08/31 04:29:25;;;;;;;4.63;1.77;;;33.50;92.70;;;;;;4159346;28;20143;-65
2022/08/31 04:31:37;;;;;;;11.38;3.70;;;33.70;92.40;;;;;;4143663;28;20050;-64
2022/08/31 04:33:42;;;;;;;3.33;2.10;;;33.80;91.70;;;;;;4159198;28;20087;-65
2022/08/31 04:35:46;;;;;;;5.22;1.45;;;33.50;91.30;;;;;;4175103;28;20112;-65
2022/08/31 04:37:51;;;;;;;5.18;3.20;;;33.30;91.20;;;;;;4158673;28;20049;-64
2022/08/31 04:39:56;;;;;;;4.22;1.90;;;33.20;91.30;;;;;;4158664;28;20056;-64
2022/08/31 04:42:01;;;;;;;4.53;2.35;;;33.10;91.90;;;;;;4175071;28;20053;-64
2022/08/31 04:44:10;;;;;;;4.65;1.70;;;33.30;92.00;;;;;;4158811;28;20061;-64
2022/08/31 04:46:22;;;;;;;3.55;1.67;;;33.60;92.00;;;;;;4158867;28;20058;-64
2022/08/31 04:48:26;;;;;;;5.13;1.52;;;33.80;92.10;;;;;;4175323;28;20492;-65
2022/08/31 04:50:36;;;;;;;4.75;1.83;;;33.80;92.20;;;;;;4160115;28;20041;-65
2022/08/31 04:52:49;;;;;;;4.45;2.03;;;33.80;91.50;;;;;;4160370;28;20076;-65
2022/08/31 04:55:07;;;;;;;4.20;1.50;;;33.70;91.80;;;;;;4159977;28;20123;-65
2022/08/31 04:57:14;;;;;;;5.35;1.80;;;33.70;91.90;;;;;;4160125;28;20128;-63
2022/08/31 04:59:24;;;;;;;2.13;1.40;;;33.80;91.30;;;;;;4174399;28;20496;-64
2022/08/31 05:01:50;;;;;;;4.72;2.03;;;34.00;90.60;;;;;;4159996;28;20057;-64
2022/08/31 05:04:32;;;;;;;3.58;1.30;;;33.90;91.20;;;;;;4160153;28;20116;-63
2022/08/31 05:07:02;;;;;;;3.58;1.70;;;33.80;91.00;;;;;;4144870;28;20099;-63
2022/08/31 05:09:16;;;;;;;2.60;1.30;;;33.90;90.80;;;;;;4175570;28;20049;-64
2022/08/31 05:11:36;;;;;;;2.90;1.10;;;33.90;90.70;;;;;;4157440;28;20810;-64
2022/08/31 05:13:42;;;;;;;2.75;1.40;;;33.90;90.60;;;;;;4158688;28;20176;-64
2022/08/31 05:15:49;;;;;;;3.53;1.30;;;34.10;90.60;;;;;;4158296;28;20072;-64
2022/08/31 05:17:59;;;;;;;1.95;1.30;;;34.40;90.50;;;;;;4175087;28;20057;-64
2022/08/31 05:20:11;;;;;;;6.10;2.63;;;34.40;90.40;;;;;;4176799;28;20198;-64
2022/08/31 05:22:22;;;;;;;4.47;1.63;;;34.60;90.60;;;;;;4178115;28;20056;-65
2022/08/31 05:24:34;;;;;;;3.40;1.27;;;34.70;88.80;;;;;;4161915;28;20049;-65
2022/08/31 05:31:20;;;;;;;2.00;1.33;;;34.50;90.40;;;;;;4139691;28;20067;-64
2022/08/31 05:34:08;;;;;;;3.55;1.45;;;34.30;91.10;;;;;;4150069;28;20071;-65
2022/08/31 05:36:13;;;;;;;2.85;1.10;;;34.40;90.20;;;;;;4144226;28;20834;-63
2022/08/31 05:38:20;;;;;;;3.05;1.17;;;34.50;90.30;;;;;;4144274;28;20053;-65
2022/08/31 05:40:28;;;;;;;3.95;1.67;;;34.60;88.70;;;;;;4160305;28;20056;-65
2022/08/31 05:42:35;;;;;;;4.50;1.70;;;34.70;88.80;;;;;;4160243;28;20056;-66
2022/08/31 05:44:42;;;;;;;2.10;1.45;;;34.80;90.20;;;;;;4160670;28;20080;-65
2022/08/31 05:46:48;;;;;;;5.57;1.58;;;34.80;90.80;;;;;;4160165;28;20049;-65
2022/08/31 05:49:00;;;;;;;3.50;1.92;;;35.00;91.10;;;;;;4160198;28;20538;-66
2022/08/31 05:51:08;;;;;;;4.25;1.83;;;35.00;91.80;;;;;;4160244;28;20068;-66
2022/08/31 05:53:16;;;;;;;2.97;1.63;;;35.00;92.10;;;;;;4160629;28;20504;-66
2022/08/31 05:55:23;;;;;;;3.28;2.05;;;35.10;92.30;;;;;;4160459;28;20593;-66
2022/08/31 05:57:29;;;;;;;3.55;2.30;;;35.00;92.40;;;;;;4160201;28;20061;-66
2022/08/31 05:59:34;;;;;;;5.28;2.28;;;34.80;92.60;;;;;;4143861;28;20104;-66
2022/08/31 06:01:42;;;;;;;5.93;2.42;;;34.80;92.70;;;;;;4143714;28;20038;-66
2022/08/31 06:03:49;;;;;;;4.13;2.60;;;34.70;92.80;;;;;;4160177;28;20049;-66
2022/08/31 06:05:54;;;;;;;5.63;2.63;;;34.70;92.70;;;;;;4161706;28;20133;-66
2022/08/31 06:07:58;;;;;;;3.55;2.25;;;34.70;92.80;;;;;;4162309;28;20069;-66
2022/08/31 06:10:05;;;;;;;3.15;1.83;;;34.70;92.70;;;;;;4145155;28;20050;-66
2022/08/31 06:12:10;;;;;;;3.60;2.10;;;34.70;92.60;;;;;;4161309;28;20080;-66
2022/08/31 06:14:21;;;;;;;5.18;2.03;;;34.70;92.50;;;;;;4162405;28;20077;-66
2022/08/31 06:16:31;;;;;;;7.07;2.10;;;34.70;92.50;;;;;;4161084;28;20103;-66
2022/08/31 06:21:08;;;;;;;4.50;2.05;;;34.80;92.40;;;;;;4161039;28;20729;-66
2022/08/31 06:23:15;;;;;;;2.67;1.88;;;34.70;92.40;;;;;;4161269;28;20094;-66
2022/08/31 06:25:24;;;;;;;4.22;1.95;;;34.70;92.70;;;;;;4145445;28;20104;-66
2022/08/31 06:27:32;;;;;;;3.85;2.60;;;34.70;92.90;;;;;;4160389;28;20770;-66
2022/08/31 06:29:36;;;;;;;4.10;2.25;;;34.70;93.00;;;;;;4176352;28;20476;-66
2022/08/31 06:31:47;;;;;;;4.68;2.17;;;34.70;92.90;;;;;;4156221;28;20042;-66
2022/08/31 06:33:55;;;;;;;4.05;2.20;;;34.70;92.70;;;;;;4150583;28;20144;-65
2022/08/31 06:39:45;;;;;;;6.07;2.15;;;35.00;92.30;;;;;;4162004;28;20045;-65
2022/08/31 06:41:56;;;;;;;7.67;2.30;;;35.00;92.20;;;;;;4160446;28;20057;-64
2022/08/31 06:44:10;;;;;;;3.75;2.00;;;34.90;92.30;;;;;;4159992;28;20045;-63
2022/08/31 06:46:32;;;;;;;4.70;1.92;;;34.80;92.50;;;;;;4149213;28;20049;-63
2022/08/31 06:48:44;;;;;;;6.53;2.10;;;34.70;92.50;;;;;;4146623;28;20564;-64
2022/08/31 06:50:56;;;;;;;3.28;1.90;;;34.60;92.70;;;;;;4144971;28;20129;-63
2022/08/31 06:53:04;;;;;;;3.13;1.90;;;34.70;93.00;;;;;;4145882;28;20038;-63
2022/08/31 06:55:29;;;;;;;5.80;1.67;;;34.60;92.90;;;;;;4146673;28;20111;-64
2022/08/31 06:57:36;;;;;;;5.57;2.00;;;34.60;92.70;;;;;;4146717;28;20496;-63
2022/08/31 06:59:55;;;;;;;3.35;1.88;;;34.60;92.50;;;;;;4151620;28;20492;-63
2022/08/31 07:02:08;;;;;;;2.15;1.83;;;34.90;92.20;;;;;;4161238;28;20401;-63
2022/08/31 07:04:13;;;;;;;3.42;1.50;;;35.00;92.20;;;;;;4161055;28;20455;-64
2022/08/31 07:06:25;;;;;;;5.18;1.75;;;34.90;92.30;;;;;;4127991;28;20500;-64
2022/08/31 07:08:29;;;;;;;5.53;1.90;;;35.00;92.30;;;;;;4163068;28;20042;-64
2022/08/31 07:10:35;;;;;;;3.40;1.88;;;35.10;91.90;;;;;;4144965;28;20101;-64
2022/08/31 07:12:42;;;;;;;2.72;1.60;;;35.30;91.60;;;;;;4144574;28;20108;-64
2022/08/31 07:14:47;;;;;;;4.15;2.00;;;35.10;91.70;;;;;;4144766;28;20603;-64
2022/08/31 07:17:01;;;;;;;2.67;1.80;;;35.20;91.70;;;;;;4129845;28;20116;-64
2022/08/31 07:19:08;;;;;;;2.38;1.48;;;35.00;91.90;;;;;;4157568;28;20052;-63
2022/08/31 07:21:20;;;;;;;2.17;1.40;;;35.00;91.30;;;;;;4161054;28;20594;-64
2022/08/31 07:23:24;;;;;;;5.38;1.60;;;34.90;91.30;;;;;;4145171;28;20058;-64
2022/08/31 07:25:40;;;;;;;3.50;1.50;;;35.00;90.60;;;;;;4146137;28;20050;-64
2022/08/31 07:27:45;;;;;;;2.97;1.35;;;35.00;90.10;;;;;;4162591;28;20050;-64
2022/08/31 07:29:50;;;;;;;3.13;1.30;;;35.10;89.30;;;;;;4160137;28;20144;-64
2022/08/31 07:31:58;;;;;;;2.35;1.40;;;35.10;88.40;;;;;;4156999;28;20167;-64
2022/08/31 07:34:06;;;;;;;3.90;1.58;;;35.20;88.20;;;;;;4161080;28;20413;-64
2022/08/31 07:36:20;;;;;;;2.47;1.40;;;35.20;87.90;;;;;;4160467;28;20475;-64
2022/08/31 07:43:12;;;;;;;2.03;1.27;;;35.30;85.60;;;;;;4176926;28;20471;-64
2022/08/31 07:45:23;;;;;;;1.95;0.93;;;35.40;86.00;;;;;;4160969;28;20432;-64
2022/08/31 07:47:34;;;;;;;2.38;1.20;;;35.30;84.20;;;;;;4160975;28;20053;-64
2022/08/31 07:49:49;;;;;;;1.35;0.98;;;35.30;84.80;;;;;;4160833;28;20045;-64
2022/08/31 07:52:25;;;;;;;1.75;1.33;;;35.20;84.60;;;;;;4161626;28;20803;-63
2022/08/31 07:54:51;;;;;;;7.03;1.00;;;34.70;84.30;;;;;;4160431;28;20060;-64
2022/08/31 07:57:03;;;;;;;2.47;1.05;;;34.60;84.30;;;;;;4161051;28;20050;-64
2022/08/31 07:59:13;;;;;;;1.50;1.02;;;34.50;85.00;;;;;;4161073;28;20057;-64
2022/08/31 08:01:20;;;;;;;3.58;1.00;;;34.50;84.30;;;;;;4160873;28;20056;-64
2022/08/31 08:03:29;;;;;;;1.35;0.75;;;34.40;83.30;;;;;;4162152;28;20056;-64
2022/08/31 08:05:50;;;;;;;1.85;0.90;;;34.40;84.10;;;;;;4161783;28;20065;-64
2022/08/31 08:08:08;;;;;;;2.17;0.80;;;34.40;84.20;;;;;;4160019;28;20602;-64
2022/08/31 08:10:42;;;;;;;2.83;0.90;;;34.40;84.40;;;;;;4161463;28;20432;-65
2022/08/31 08:13:11;;;;;;;2.28;1.17;;;34.40;84.80;;;;;;4144302;28;20054;-64
2022/08/31 08:15:27;;;;;;;2.05;1.15;;;34.30;84.80;;;;;;4160352;28;20269;-64
2022/08/31 08:17:51;;;;;;;2.00;1.08;;;34.40;85.40;;;;;;4161985;28;20050;-64
2022/08/31 08:20:04;;;;;;;3.33;2.00;;;34.40;85.90;;;;;;4160824;28;20427;-64
2022/08/31 08:22:16;;;;;;;2.83;1.80;;;34.40;86.00;;;;;;4160295;28;20133;-63
2022/08/31 08:24:54;;;;;;;4.07;1.40;;;34.40;86.40;;;;;;4177299;28;20823;-63
2022/08/31 08:27:20;;;;;;;2.55;1.40;;;34.40;86.60;;;;;;4160614;28;20156;-64
2022/08/31 08:29:44;;;;;;;2.63;1.20;;;34.40;87.50;;;;;;4161717;28;20046;-64
2022/08/31 08:31:54;;;;;;;2.40;1.45;;;34.40;88.40;;;;;;4159742;28;20061;-64
2022/08/31 08:34:02;;;;;;;4.82;2.38;;;34.60;88.00;;;;;;4176222;28;20049;-64
2022/08/31 08:36:08;;;;;;;7.75;2.45;;;34.70;87.10;;;;;;4160472;28;20505;-64
2022/08/31 08:38:13;;;;;;;5.22;2.78;;;34.80;86.80;;;;;;4160542;28;20049;-63
2022/08/31 08:40:35;;;;;;;4.45;2.70;;;35.00;86.70;;;;;;4158891;28;20053;-63
2022/08/31 08:42:40;;;;;;;4.05;2.35;;;35.10;86.60;;;;;;4160284;28;20068;-64
2022/08/31 08:44:46;;;;;;;5.75;2.53;;;35.00;85.70;;;;;;4161109;28;20045;-63
2022/08/31 08:46:58;;;;;;;4.95;2.40;;;35.00;85.60;;;;;;4159962;28;20923;-66
2022/08/31 08:49:30;;;;;;;4.80;2.60;;;35.10;86.00;;;;;;4161883;28;20049;-64
2022/08/31 08:51:38;;;;;;;6.47;2.28;;;35.10;85.40;;;;;;4160068;28;20617;-65
2022/08/31 08:53:48;;;;;;;4.20;1.95;;;35.20;85.30;;;;;;4161673;28;20045;-64
2022/08/31 08:56:04;;;;;;;3.75;1.60;;;35.20;85.50;;;;;;4163880;28;20049;-64
2022/08/31 08:58:30;;;;;;;3.67;1.48;;;35.30;85.60;;;;;;4163831;28;20534;-65
2022/08/31 09:00:41;;;;;;;1.67;1.20;;;35.30;85.00;;;;;;4163172;28;20056;-65
2022/08/31 09:03:00;;;;;;;1.88;1.10;;;35.30;84.90;;;;;;4163398;28;20053;-65
2022/08/31 09:05:45;;;;;;;6.13;1.48;;;35.30;84.10;;;;;;4147278;28;20058;-65
2022/08/31 09:08:22;;;;;;;2.25;1.20;;;35.30;84.80;;;;;;4132140;28;20082;-65
2022/08/31 09:11:08;;;;;;;2.67;1.20;;;35.10;83.00;;;;;;4163053;28;20161;-64
2022/08/31 09:13:42;;;;;;;2.70;1.80;;;34.90;83.90;;;;;;4164696;28;20049;-64
2022/08/31 09:16:06;;;;;;;3.50;2.17;;;34.80;84.20;;;;;;4164921;28;20049;-64
2022/08/31 09:18:51;;;;;;;2.45;1.60;;;34.70;84.30;;;;;;4179870;28;20115;-64
2022/08/31 09:21:05;;;;;;;7.18;1.80;;;34.70;85.30;;;;;;4163119;28;20053;-64
2022/08/31 09:23:10;;;;;;;3.15;1.75;;;34.70;85.50;;;;;;4180035;28;20049;-63
2022/08/31 09:25:28;;;;;;;2.72;1.58;;;34.70;85.60;;;;;;4164298;28;20056;-64
2022/08/31 09:28:00;;;;;;;2.20;1.40;;;34.60;85.70;;;;;;4163302;28;20467;-64
2022/08/31 09:30:05;;;;;;;5.13;1.52;;;34.70;86.40;;;;;;4164132;28;20049;-63
2022/08/31 09:32:16;;;;;;;6.50;1.80;;;34.70;86.90;;;;;;4163249;28;20053;-64
2022/08/31 09:34:31;;;;;;;4.47;1.70;;;34.70;87.80;;;;;;4163832;28;20045;-65
2022/08/31 09:36:40;;;;;;;12.77;1.55;;;34.60;88.60;;;;;;4164648;28;20037;-64
2022/08/31 09:38:46;;;;;;;4.88;1.60;;;34.60;89.20;;;;;;4164585;28;20166;-64
2022/08/31 09:40:53;;;;;;;3.05;1.73;;;34.60;89.00;;;;;;4164000;28;20140;-64
2022/08/31 09:43:13;;;;;;;4.28;1.60;;;34.60;89.50;;;;;;4179680;28;20084;-64
2022/08/31 09:45:28;;;;;;;5.03;3.40;;;34.60;90.00;;;;;;4163474;28;20076;-63
2022/08/31 09:47:51;;;;;;;11.57;7.25;;;34.60;90.10;;;;;;4120516;28;20062;-63
2022/08/31 09:49:56;;;;;;;8.48;5.75;;;34.50;90.20;;;;;;4160020;28;20052;-65
2022/08/31 09:55:12;;;;;;;9.32;5.15;;;34.50;90.20;;;;;;4177209;28;20760;-64
2022/08/31 09:57:19;;;;;;;7.97;3.85;;;34.50;90.90;;;;;;4177327;28;20041;-64
2022/08/31 09:59:45;;;;;;;16.63;12.02;;;34.40;91.00;;;;;;4154509;28;20149;-63
2022/08/31 10:01:52;;;;;;;22.77;15.35;;;34.40;91.40;;;;;;4143833;28;20054;-63
2022/08/31 10:04:26;;;;;;;13.70;10.15;;;34.40;91.40;;;;;;4143189;28;20046;-64
2022/08/31 10:06:45;;;;;;;12.98;7.60;;;34.40;91.80;;;;;;4142980;28;20072;-64
2022/08/31 10:08:58;;;;;;;8.35;5.13;;;34.30;91.90;;;;;;4144450;28;20049;-62
2022/08/31 10:11:21;;;;;;;6.05;4.40;;;34.30;92.10;;;;;;4144644;28;20559;-65
2022/08/31 10:13:59;;;;;;;5.65;4.10;;;34.30;92.30;;;;;;4145806;28;20715;-64
2022/08/31 10:16:15;;;;;;;6.00;3.60;;;34.20;92.90;;;;;;4146077;28;20038;-65
2022/08/31 10:18:49;;;;;;;4.70;2.80;;;34.10;92.80;;;;;;4089528;28;20047;-60
2022/08/31 10:21:07;;;;;;;6.22;3.25;;;34.10;93.20;;;;;;4141973;28;20777;-66
2022/08/31 10:23:55;;;;;;;4.88;2.95;;;34.10;92.80;;;;;;4098492;28;20067;-65
2022/08/31 10:26:07;;;;;;;5.25;2.55;;;33.90;92.60;;;;;;4144242;28;20045;-65
2022/08/31 10:28:36;;;;;;;7.30;2.42;;;33.80;92.70;;;;;;4143028;28;20053;-64
2022/08/31 10:31:06;;;;;;;5.07;2.70;;;33.70;92.90;;;;;;4125723;28;20093;-66
2022/08/31 10:33:16;;;;;;;5.38;2.15;;;33.60;93.20;;;;;;4152732;28;20049;-66
2022/08/31 10:35:47;;;;;;;7.25;2.70;;;33.50;93.20;;;;;;4162424;28;20108;-65
2022/08/31 10:38:07;;;;;;;3.65;2.20;;;33.50;93.40;;;;;;4161192;28;20121;-64
2022/08/31 10:40:31;;;;;;;4.53;2.05;;;33.40;93.70;;;;;;4172972;28;20073;-65
2022/08/31 10:42:56;;;;;;;5.03;2.20;;;33.40;94.00;;;;;;4162173;28;20037;-64
2022/08/31 10:45:20;;;;;;;2.90;2.03;;;33.40;94.10;;;;;;4163425;28;21466;-64
2022/08/31 10:47:28;;;;;;;4.25;2.58;;;33.20;94.30;;;;;;4170169;28;20495;-66
2022/08/31 10:49:37;;;;;;;6.00;2.38;;;33.10;94.30;;;;;;4162471;28;20585;-64
2022/08/31 10:52:17;;;;;;;6.93;2.42;;;33.20;94.40;;;;;;4161613;28;20037;-65
2022/08/31 10:54:53;;;;;;;14.55;2.75;;;33.20;94.50;;;;;;4158808;28;20112;-64
2022/08/31 10:57:22;;;;;;;8.70;2.03;;;33.20;94.60;;;;;;4160322;28;20038;-65
2022/08/31 11:00:40;;;;;;;6.00;1.80;;;33.10;94.60;;;;;;4158911;28;20107;-63
2022/08/31 11:02:54;;;;;;;3.42;2.20;;;33.10;94.70;;;;;;4160778;28;20489;-62
2022/08/31 11:05:21;;;;;;;28.23;4.28;;;33.10;94.90;;;;;;4159531;28;20046;-64
2022/08/31 11:07:58;;;;;;;12.63;3.00;;;33.00;95.20;;;;;;4160547;28;20052;-63
2022/08/31 11:10:36;;;;;;;14.35;3.67;;;32.90;95.10;;;;;;4158975;28;20041;-65
2022/08/31 11:12:43;;;;;;;7.82;3.35;;;32.90;95.40;;;;;;4160747;28;20547;-64
2022/08/31 11:15:21;;;;;;;7.20;3.33;;;32.90;95.50;;;;;;4160776;28;20452;-63
2022/08/31 11:17:54;;;;;;;4.47;3.22;;;32.80;95.50;;;;;;4159051;28;20045;-62
2022/08/31 11:20:39;;;;;;;15.13;4.00;;;32.70;95.90;;;;;;4159893;28;20045;-62
2022/08/31 11:23:07;;;;;;;10.07;3.65;;;32.70;95.90;;;;;;4141806;28;20049;-63
2022/08/31 11:25:46;;;;;;;6.50;3.40;;;32.70;95.80;;;;;;4159869;28;20045;-64
2022/08/31 11:28:07;;;;;;;9.05;3.30;;;32.70;95.80;;;;;;4158267;28;20827;-64
2022/08/31 11:30:25;;;;;;;6.05;3.65;;;32.60;96.00;;;;;;4159369;28;20037;-63
2022/08/31 11:32:35;;;;;;;7.47;3.50;;;32.70;96.20;;;;;;4159017;28;20045;-63
2022/08/31 11:34:53;;;;;;;11.30;4.30;;;32.60;96.30;;;;;;4159537;28;20822;-64
2022/08/31 11:36:59;;;;;;;7.15;4.68;;;32.60;96.40;;;;;;4161010;28;20049;-66
2022/08/31 11:39:35;;;;;;;10.30;4.22;;;32.60;96.50;;;;;;4161869;28;20041;-65
2022/08/31 11:41:46;;;;;;;8.45;4.53;;;32.50;96.70;;;;;;4159090;28;20469;-65
2022/08/31 11:43:53;;;;;;;8.50;4.20;;;32.50;96.80;;;;;;4161020;28;20164;-67
2022/08/31 11:46:22;;;;;;;7.35;3.85;;;32.60;96.80;;;;;;4159914;28;20459;-68
2022/08/31 11:49:02;;;;;;;6.25;4.50;;;32.50;96.90;;;;;;4110409;28;20070;-66
2022/08/31 11:51:10;;;;;;;6.53;4.10;;;32.60;97.00;;;;;;4159749;28;20615;-68
2022/08/31 11:53:36;;;;;;;8.65;4.15;;;32.40;97.00;;;;;;4160485;28;20045;-66
2022/08/31 11:55:47;;;;;;;6.30;4.03;;;32.40;97.20;;;;;;4165561;28;20051;-66
2022/08/31 11:58:10;;;;;;;5.55;3.92;;;32.40;97.40;;;;;;4162052;28;20388;-67